Time;durP1;ratioP1;P1;durP2;ratioP2;P2;SDS_P1;SDS_P2;PMS_P1;PMS_P2;Temp;Humidity;BMP_temperature;BMP_pressure;BME280_temperature;BME280_humidity;BME280_pressure;Samples;Min_cycle;Max_cycle;Signal;HPM_P1;HPM_P2
2022/09/22 00:01:19;;;;;;;6.80;5.22;;;;;;;9.93;69.91;99180.67;1750883;81;20953;-44
2022/09/22 00:03:51;;;;;;;5.17;4.50;;;;;;;9.92;69.89;99183.16;1750931;82;21025;-44
2022/09/22 00:06:21;;;;;;;6.80;5.50;;;;;;;9.97;69.94;99188.28;1750681;81;21011;-44
2022/09/22 00:08:52;;;;;;;6.50;4.80;;;;;;;10.01;69.91;99185.66;1751055;82;21162;-44
2022/09/22 00:11:23;;;;;;;8.93;5.12;;;;;;;10.01;69.79;99184.30;1714729;83;20901;-44
2022/09/22 00:13:54;;;;;;;8.65;5.70;;;;;;;9.99;69.79;99183.87;1751385;81;20965;-44
2022/09/22 00:16:30;;;;;;;5.87;5.10;;;;;;;10.00;69.70;99181.38;1714952;83;21589;-44
2022/09/22 00:18:57;;;;;;;7.58;5.20;;;;;;;9.96;69.54;99182.67;1714901;83;21024;-43
2022/09/22 00:21:26;;;;;;;6.03;4.97;;;;;;;9.91;69.59;99176.77;1750923;81;21282;-44
2022/09/22 00:23:53;;;;;;;8.78;5.53;;;;;;;9.82;69.62;99174.86;1750602;82;21028;-44
2022/09/22 00:26:21;;;;;;;5.70;4.72;;;;;;;9.79;69.92;99179.05;1750915;82;21005;-44
2022/09/22 00:28:50;;;;;;;8.30;4.90;;;;;;;9.80;70.08;99180.63;1751054;82;20978;-44
2022/09/22 00:31:22;;;;;;;10.35;5.55;;;;;;;9.76;70.24;99185.19;1745549;82;20970;-44
2022/09/22 00:33:51;;;;;;;6.28;5.00;;;;;;;9.69;70.31;99186.40;1742829;82;21081;-44
2022/09/22 00:36:20;;;;;;;6.92;5.80;;;;;;;9.64;70.46;99193.45;1741608;81;21009;-44
2022/09/22 00:38:51;;;;;;;7.70;5.37;;;;;;;9.63;70.46;99191.12;1734332;82;21057;-44
2022/09/22 00:41:22;;;;;;;5.95;4.80;;;;;;;9.64;70.25;99194.80;1734550;82;21065;-44
2022/09/22 00:44:11;;;;;;;7.97;5.05;;;;;;;9.69;70.08;99198.58;1734524;82;21534;-44
2022/09/22 00:46:39;;;;;;;6.33;5.10;;;;;;;9.72;69.98;99200.59;1734700;82;21139;-43
2022/09/22 00:51:31;;;;;;;6.00;5.08;;;;;;;9.75;69.80;99197.72;1835925;78;22434;-43
2022/09/22 00:53:58;;;;;;;9.33;5.03;;;;;;;9.61;69.84;99194.17;1806080;79;20994;-44
2022/09/22 00:56:30;;;;;;;7.40;5.45;;;;;;;9.64;69.84;99197.51;1806143;79;21120;-44
2022/09/22 00:59:02;;;;;;;8.08;4.95;;;;;;;9.63;69.45;99193.26;1805043;79;21016;-44
2022/09/22 01:01:29;;;;;;;7.37;5.08;;;;;;;9.58;69.38;99197.01;1805783;79;21540;-43
2022/09/22 01:03:55;;;;;;;6.78;4.75;;;;;;;9.58;69.54;99198.36;1805651;79;21151;-44
2022/09/22 01:06:25;;;;;;;5.90;4.72;;;;;;;9.67;69.88;99199.52;1805762;79;20994;-44
2022/09/22 01:08:54;;;;;;;6.20;4.35;;;;;;;9.73;69.87;99191.30;1777244;79;21836;-44
2022/09/22 01:11:21;;;;;;;5.28;4.20;;;;;;;9.72;70.44;99191.69;1805662;79;21555;-44
2022/09/22 01:14:20;;;;;;;9.13;5.65;;;;;;;9.70;70.84;99193.95;1805807;79;21002;-44
2022/09/22 01:17:24;;;;;;;7.58;4.78;;;;;;;9.69;70.86;99195.08;1805812;79;20970;-44
2022/09/22 01:20:22;;;;;;;6.03;4.17;;;;;;;9.63;71.15;99186.49;1804361;79;21034;-44
2022/09/22 01:23:29;;;;;;;4.83;4.08;;;;;;;9.63;71.36;99183.78;1805818;79;21866;-44
2022/09/22 01:26:25;;;;;;;5.58;4.40;;;;;;;9.70;71.44;99189.89;1805856;79;20907;-43
2022/09/22 01:29:30;;;;;;;6.55;4.40;;;;;;;9.69;71.70;99189.10;1805918;79;21066;-44
2022/09/22 01:32:02;;;;;;;6.00;4.65;;;;;;;9.68;71.89;99190.83;1805852;79;21374;-44
2022/09/22 01:34:35;;;;;;;7.65;4.45;;;;;;;9.66;72.19;99190.39;1803614;79;21002;-44
2022/09/22 01:37:20;;;;;;;6.45;3.87;;;;;;;9.73;72.11;99192.66;1799787;79;21252;-43
2022/09/22 01:40:01;;;;;;;7.95;4.20;;;;;;;9.79;72.08;99187.17;1805922;79;21536;-43
2022/09/22 01:42:39;;;;;;;5.75;4.05;;;;;;;9.81;72.13;99176.78;1805741;79;20987;-43
2022/09/22 01:45:12;;;;;;;4.53;4.08;;;;;;;9.81;72.17;99185.47;1805969;79;21043;-43
2022/09/22 01:47:52;;;;;;;4.30;3.90;;;;;;;9.80;72.43;99179.27;1805841;79;21040;-43
2022/09/22 01:50:27;;;;;;;6.17;4.12;;;;;;;9.78;72.57;99185.60;1804807;79;21732;-44
2022/09/22 01:52:54;;;;;;;4.65;4.10;;;;;;;9.77;72.42;99185.41;1803086;79;21002;-44
2022/09/22 01:55:25;;;;;;;7.00;4.45;;;;;;;9.81;72.52;99187.61;1803100;79;20924;-44
2022/09/22 01:57:58;;;;;;;4.20;3.80;;;;;;;9.86;72.46;99177.06;1803050;79;20919;-44
2022/09/22 02:00:26;;;;;;;6.08;4.30;;;;;;;9.85;72.56;99176.27;1803188;79;21006;-43
2022/09/22 02:03:00;;;;;;;4.53;3.92;;;;;;;9.86;72.54;99181.91;1802806;79;21829;-44
2022/09/22 02:05:40;;;;;;;3.47;3.17;;;;;;;9.82;72.40;99177.56;1802815;79;20966;-44
2022/09/22 02:08:13;;;;;;;3.60;3.30;;;;;;;9.77;72.52;99185.41;1803011;79;21004;-44
2022/09/22 02:10:43;;;;;;;4.97;3.70;;;;;;;9.76;72.67;99179.78;1803153;79;21505;-44
2022/09/22 02:13:09;;;;;;;4.50;3.98;;;;;;;9.74;72.82;99183.97;1802943;79;21070;-44
2022/09/22 02:18:28;;;;;;;4.62;4.10;;;;;;;9.72;73.08;99180.85;1802643;79;21031;-43
2022/09/22 02:20:56;;;;;;;4.97;4.20;;;;;;;9.69;73.04;99186.96;1802421;79;21042;-44
2022/09/22 02:23:23;;;;;;;4.85;3.95;;;;;;;9.63;73.15;99178.94;1773593;79;21524;-44
2022/09/22 02:25:49;;;;;;;5.62;3.60;;;;;;;9.67;73.25;99183.84;1756473;79;21016;-44
2022/09/22 02:28:17;;;;;;;6.58;4.40;;;;;;;9.70;73.25;99173.08;1752359;81;21243;-44
2022/09/22 02:30:45;;;;;;;4.55;4.08;;;;;;;9.74;73.35;99179.34;1752436;81;21033;-44
2022/09/22 02:33:12;;;;;;;5.45;4.50;;;;;;;9.69;73.17;99172.86;1752276;81;21600;-44
2022/09/22 02:35:39;;;;;;;5.55;3.95;;;;;;;9.58;73.31;99177.30;1731455;81;21013;-43
2022/09/22 02:38:13;;;;;;;6.67;4.62;;;;;;;9.53;73.65;99173.53;1752187;81;21680;-43
2022/09/22 02:41:02;;;;;;;4.45;3.67;;;;;;;9.59;73.62;99170.73;1752730;81;21090;-43
2022/09/22 02:43:49;;;;;;;5.10;4.47;;;;;;;9.65;73.58;99165.25;1752852;81;20990;-43
2022/09/22 02:46:30;;;;;;;6.00;4.45;;;;;;;9.64;73.73;99171.01;1752873;81;21056;-44
2022/09/22 02:49:01;;;;;;;5.80;4.47;;;;;;;9.57;73.65;99175.73;1752314;81;21002;-42
2022/09/22 02:51:31;;;;;;;4.55;4.10;;;;;;;9.46;73.93;99173.38;1744626;81;21080;-43
2022/09/22 02:53:58;;;;;;;4.42;4.03;;;;;;;9.45;74.07;99178.56;1741743;82;23162;-43
2022/09/22 02:56:25;;;;;;;6.40;4.80;;;;;;;9.51;74.10;99169.03;1741856;82;21080;-43
2022/09/22 02:58:51;;;;;;;5.35;4.35;;;;;;;9.52;73.96;99170.03;1741844;82;21005;-43
2022/09/22 03:01:18;;;;;;;6.72;4.33;;;;;;;9.46;74.10;99174.73;1741933;82;21578;-43
2022/09/22 03:03:45;;;;;;;5.17;4.17;;;;;;;9.40;74.26;99168.81;1765496;81;20994;-43
2022/09/22 03:06:11;;;;;;;7.72;4.17;;;;;;;9.34;74.47;99172.97;1772607;81;21095;-43
2022/09/22 03:08:38;;;;;;;6.08;4.08;;;;;;;9.30;74.62;99177.49;1772367;81;20914;-43
2022/09/22 03:11:05;;;;;;;7.35;4.35;;;;;;;9.33;74.67;99174.66;1772451;79;20958;-43
2022/09/22 03:13:32;;;;;;;8.43;4.30;;;;;;;9.38;74.72;99180.58;1772431;79;21016;-43
2022/09/22 03:15:58;;;;;;;6.17;4.42;;;;;;;9.33;74.83;99177.37;1772775;79;20950;-43
2022/09/22 03:18:25;;;;;;;11.80;4.35;;;;;;;9.26;74.83;99181.27;1772948;81;21312;-44
2022/09/22 03:20:52;;;;;;;6.28;4.33;;;;;;;9.16;75.02;99180.69;1772824;79;20989;-44
2022/09/22 03:23:19;;;;;;;7.67;4.40;;;;;;;9.11;75.17;99178.26;1772756;81;20925;-44
2022/09/22 03:25:46;;;;;;;6.12;4.62;;;;;;;9.16;75.17;99173.92;1772389;81;20973;-44
2022/09/22 03:28:13;;;;;;;5.03;4.50;;;;;;;9.15;75.10;99180.46;1772602;81;21047;-44
2022/09/22 03:30:39;;;;;;;7.25;5.00;;;;;;;9.10;75.32;99184.04;1772430;79;21079;-44
2022/09/22 03:33:07;;;;;;;4.37;3.87;;;;;;;9.10;75.45;99180.74;1772421;81;21282;-43
2022/09/22 03:35:35;;;;;;;4.35;3.83;;;;;;;9.15;75.11;99183.17;1772496;79;20922;-43
2022/09/22 03:38:02;;;;;;;5.40;4.10;;;;;;;9.17;74.90;99185.53;1767523;81;21009;-43
2022/09/22 03:40:28;;;;;;;5.25;4.30;;;;;;;9.17;74.81;99196.34;1772469;79;20994;-44
2022/09/22 03:42:55;;;;;;;8.65;4.22;;;;;;;9.09;74.88;99197.34;1772500;79;21227;-44
2022/09/22 03:45:22;;;;;;;5.10;4.30;;;;;;;9.00;75.15;99200.25;1772578;79;20985;-44
2022/09/22 03:47:49;;;;;;;6.17;4.62;;;;;;;8.93;75.31;99197.93;1772458;81;20965;-43
2022/09/22 03:50:15;;;;;;;5.95;4.20;;;;;;;8.89;75.67;99192.45;1774005;79;20956;-44
2022/09/22 03:52:43;;;;;;;5.45;4.40;;;;;;;8.94;75.81;99194.89;1786806;80;21029;-43
2022/09/22 03:55:10;;;;;;;7.40;4.92;;;;;;;8.94;76.03;99194.89;1786647;80;21229;-43
2022/09/22 03:57:38;;;;;;;5.12;4.62;;;;;;;8.93;76.19;99190.61;1786877;80;20970;-43
2022/09/22 04:00:07;;;;;;;7.78;4.75;;;;;;;8.96;76.21;99193.95;1786724;80;20929;-43
2022/09/22 04:02:40;;;;;;;6.35;4.50;;;;;;;9.03;76.08;99191.98;1780689;79;21542;-43
2022/09/22 04:05:09;;;;;;;6.58;4.83;;;;;;;9.08;75.98;99199.26;1786681;80;21056;-44
2022/09/22 04:07:36;;;;;;;6.35;5.25;;;;;;;9.09;75.97;99195.98;1786710;80;21105;-43
2022/09/22 04:10:04;;;;;;;5.72;4.53;;;;;;;9.06;76.02;99206.92;1786406;80;21565;-44
2022/09/22 04:12:32;;;;;;;5.67;4.40;;;;;;;9.06;75.90;99205.58;1786575;79;20980;-43
2022/09/22 04:14:59;;;;;;;5.95;4.55;;;;;;;9.07;75.84;99205.80;1757749;80;21811;-43
2022/09/22 04:17:25;;;;;;;7.65;4.78;;;;;;;9.09;76.05;99207.59;1755507;81;21022;-43
2022/09/22 04:19:54;;;;;;;7.25;5.20;;;;;;;9.07;76.01;99205.01;1755407;81;21218;-44
2022/09/22 04:22:20;;;;;;;10.40;5.20;;;;;;;9.02;76.17;99210.13;1755419;81;21491;-43
2022/09/22 04:24:47;;;;;;;8.50;6.05;;;;;;;9.02;76.13;99208.77;1755681;80;21680;-43
2022/09/22 04:27:14;;;;;;;9.30;6.30;;;;;;;9.06;76.25;99210.98;1755796;80;21051;-44
2022/09/22 04:29:40;;;;;;;7.05;6.35;;;;;;;9.10;76.22;99213.79;1755775;81;20997;-44
2022/09/22 04:32:07;;;;;;;12.23;7.17;;;;;;;9.07;76.32;99207.15;1755663;81;21242;-43
2022/09/22 04:34:34;;;;;;;9.00;7.22;;;;;;;9.06;76.57;99209.63;1755517;80;21506;-43
2022/09/22 04:37:02;;;;;;;8.33;6.50;;;;;;;9.09;76.55;99213.56;1755489;81;20967;-43
2022/09/22 04:39:29;;;;;;;8.60;6.28;;;;;;;9.10;76.35;99211.84;1755566;80;21542;-43
2022/09/22 04:41:55;;;;;;;10.45;7.17;;;;;;;9.12;76.51;99211.50;1755511;80;21028;-43
2022/09/22 04:44:22;;;;;;;9.00;7.42;;;;;;;9.09;76.59;99212.21;1755519;80;21142;-43
2022/09/22 04:46:49;;;;;;;8.40;7.25;;;;;;;9.07;76.84;99218.53;1755408;80;21549;-43
2022/09/22 04:49:17;;;;;;;8.93;7.20;;;;;;;9.08;76.72;99218.75;1755587;80;21076;-43
2022/09/22 04:51:44;;;;;;;13.05;6.87;;;;;;;9.05;76.53;99212.11;1756723;81;21506;-43
2022/09/22 04:54:10;;;;;;;11.45;7.58;;;;;;;9.02;76.65;99214.74;1757991;81;21006;-43
2022/09/22 04:56:37;;;;;;;8.93;7.75;;;;;;;8.99;77.07;99216.81;1757796;81;21814;-43
2022/09/22 04:59:04;;;;;;;7.03;6.33;;;;;;;9.01;77.26;99219.36;1757704;81;20984;-43
2022/09/22 05:01:32;;;;;;;7.87;6.10;;;;;;;9.05;77.04;99219.47;1758129;81;21004;-43
2022/09/22 05:03:58;;;;;;;9.33;6.90;;;;;;;9.05;76.90;99220.23;1757953;81;20909;-43
2022/09/22 05:06:26;;;;;;;11.12;7.20;;;;;;;9.07;76.95;99222.02;1757997;81;21044;-43
2022/09/22 05:08:54;;;;;;;9.98;7.30;;;;;;;9.06;77.08;99224.50;1758110;81;21140;-43
2022/09/22 05:11:23;;;;;;;10.58;7.20;;;;;;;9.03;77.32;99227.92;1757799;81;21000;-43
2022/09/22 05:13:50;;;;;;;9.55;6.72;;;;;;;9.04;77.20;99230.06;1758056;81;21008;-43
2022/09/22 05:16:17;;;;;;;8.50;7.10;;;;;;;9.02;77.16;99232.32;1757797;81;21569;-43
2022/09/22 05:18:45;;;;;;;10.00;7.47;;;;;;;9.03;77.37;99237.95;1757987;81;21476;-43
2022/09/22 05:21:12;;;;;;;10.60;8.18;;;;;;;9.03;77.57;99236.59;1757710;81;21138;-44
2022/09/22 05:23:38;;;;;;;8.53;7.22;;;;;;;9.04;77.70;99241.66;1757852;81;20933;-44
2022/09/22 05:26:05;;;;;;;8.93;7.70;;;;;;;9.11;77.69;99240.45;1757835;81;21328;-43
2022/09/22 05:28:32;;;;;;;7.60;6.78;;;;;;;9.21;77.49;99237.77;1757852;81;21084;-43
2022/09/22 05:30:59;;;;;;;10.00;8.25;;;;;;;9.30;77.03;99248.39;1757907;81;21486;-43
2022/09/22 05:33:26;;;;;;;10.23;8.03;;;;;;;9.26;77.08;99248.89;1757779;81;21252;-44
2022/09/22 05:35:53;;;;;;;9.50;7.62;;;;;;;9.27;77.06;99255.88;1757612;81;21466;-43
2022/09/22 05:38:19;;;;;;;9.80;7.92;;;;;;;9.29;76.92;99248.98;1758313;81;21012;-43
2022/09/22 05:40:46;;;;;;;9.25;8.25;;;;;;;9.36;76.76;99251.05;1758125;81;21015;-43
2022/09/22 05:43:12;;;;;;;9.05;8.03;;;;;;;9.42;76.48;99246.93;1758292;81;21060;-43
2022/09/22 05:45:39;;;;;;;10.08;8.98;;;;;;;9.38;76.49;99248.78;1758255;81;21298;-43
2022/09/22 05:48:06;;;;;;;9.75;8.43;;;;;;;9.32;76.56;99251.54;1757907;81;20964;-44
2022/09/22 05:50:33;;;;;;;10.45;8.28;;;;;;;9.35;76.76;99255.67;1757918;81;21050;-44
2022/09/22 05:53:08;;;;;;;9.78;8.00;;;;;;;9.43;76.62;99257.98;1757835;81;21019;-44
2022/09/22 05:55:37;;;;;;;10.35;8.40;;;;;;;9.46;76.50;99254.55;1757904;81;21030;-43
2022/09/22 05:58:04;;;;;;;8.60;7.70;;;;;;;9.45;76.63;99252.98;1758041;81;21139;-44
2022/09/22 06:00:30;;;;;;;10.55;8.63;;;;;;;9.44;76.75;99255.49;1757964;81;20968;-43
2022/09/22 06:02:57;;;;;;;8.40;7.50;;;;;;;9.48;76.68;99255.78;1757923;81;21024;-43
2022/09/22 06:05:24;;;;;;;9.13;8.03;;;;;;;9.54;76.41;99252.98;1752716;81;20976;-44
2022/09/22 06:08:02;;;;;;;11.15;8.78;;;;;;;9.58;76.28;99253.09;1758005;81;21068;-44
2022/09/22 06:10:30;;;;;;;9.88;8.40;;;;;;;9.60;76.38;99253.50;1757958;81;21218;-44
2022/09/22 06:13:01;;;;;;;9.60;7.50;;;;;;;9.58;76.39;99253.09;1758249;81;21000;-43
2022/09/22 06:15:29;;;;;;;9.73;8.33;;;;;;;9.58;76.39;99255.80;1758153;81;20972;-43
2022/09/22 06:17:56;;;;;;;9.03;7.72;;;;;;;9.63;76.46;99252.80;1769637;80;21574;-43
2022/09/22 06:20:24;;;;;;;9.85;8.20;;;;;;;9.74;76.44;99257.84;1789328;80;21018;-43
2022/09/22 06:22:50;;;;;;;9.30;8.33;;;;;;;9.74;76.38;99263.27;1789247;79;21142;-43
2022/09/22 06:25:17;;;;;;;9.13;8.08;;;;;;;9.75;76.51;99254.58;1788980;80;21264;-44
2022/09/22 06:27:45;;;;;;;9.33;7.42;;;;;;;9.83;76.57;99248.16;1789101;80;21034;-43
2022/09/22 06:30:13;;;;;;;9.08;7.60;;;;;;;9.94;76.06;99254.57;1789085;80;20935;-43
2022/09/22 06:32:42;;;;;;;9.68;7.80;;;;;;;10.00;75.74;99250.44;1789095;80;20981;-43
2022/09/22 06:35:08;;;;;;;11.53;8.85;;;;;;;9.99;75.61;99247.52;1789095;80;23146;-43
2022/09/22 06:37:37;;;;;;;8.50;7.60;;;;;;;9.95;75.59;99253.44;1788953;80;21593;-43
2022/09/22 06:40:07;;;;;;;9.00;8.10;;;;;;;9.94;75.47;99247.23;1789124;79;20998;-43
2022/09/22 06:42:35;;;;;;;9.50;8.27;;;;;;;9.98;75.38;99245.94;1789839;78;21045;-43
2022/09/22 06:45:03;;;;;;;12.55;8.98;;;;;;;10.02;75.36;99251.63;1788992;79;21070;-43
2022/09/22 06:47:31;;;;;;;9.05;8.03;;;;;;;9.96;75.28;99250.38;1789539;79;21187;-43
2022/09/22 06:50:01;;;;;;;9.55;8.23;;;;;;;9.89;75.27;99250.23;1789079;80;20992;-43
2022/09/22 06:52:27;;;;;;;7.42;6.72;;;;;;;9.89;75.60;99262.98;1787802;79;21475;-43
2022/09/22 06:54:57;;;;;;;12.30;7.00;;;;;;;10.00;75.80;99260.70;1786778;80;21587;-43
2022/09/22 06:57:26;;;;;;;8.88;7.55;;;;;;;10.11;75.35;99262.84;1786799;80;20989;-43
2022/09/22 06:59:51;;;;;;;8.25;7.42;;;;;;;10.14;75.30;99266.96;1786473;79;21234;-43
2022/09/22 07:02:18;;;;;;;11.25;7.40;;;;;;;9.87;75.12;99215.19;1786538;79;20901;-44
2022/09/22 07:04:47;;;;;;;9.65;7.10;;;;;;;10.23;75.17;99257.28;1786434;80;21012;-43
2022/09/22 07:07:13;;;;;;;9.23;6.80;;;;;;;10.36;75.27;99265.47;1786585;79;21574;-43
2022/09/22 07:09:40;;;;;;;7.80;7.00;;;;;;;10.49;74.89;99264.15;1786448;79;21052;-44
2022/09/22 07:12:07;;;;;;;7.62;6.83;;;;;;;10.50;74.52;99267.08;1786438;79;21236;-44
2022/09/22 07:14:34;;;;;;;9.33;7.42;;;;;;;10.48;74.48;99269.92;1786507;79;20984;-43
2022/09/22 07:17:01;;;;;;;10.53;6.92;;;;;;;10.47;74.46;99271.84;1786606;79;20966;-44
2022/09/22 07:19:33;;;;;;;7.60;6.03;;;;;;;10.46;74.69;99272.98;1786609;80;21020;-44
2022/09/22 07:21:57;;;;;;;8.08;6.33;;;;;;;10.48;74.58;99273.42;1786299;80;21033;-44
2022/09/22 07:24:42;;;;;;;8.63;6.40;;;;;;;10.49;74.72;99274.99;1747666;80;21232;-43
2022/09/22 07:27:09;;;;;;;7.67;6.40;;;;;;;10.46;74.93;99271.05;1786615;79;20946;-43
2022/09/22 07:29:37;;;;;;;7.97;6.15;;;;;;;10.51;75.45;99272.69;1786772;80;20929;-43
2022/09/22 07:32:04;;;;;;;6.83;6.12;;;;;;;10.61;75.37;99272.09;1786701;79;21036;-43
2022/09/22 07:34:31;;;;;;;7.70;5.80;;;;;;;10.72;75.10;99273.06;1786699;80;21057;-44
2022/09/22 07:36:58;;;;;;;7.50;5.92;;;;;;;10.84;74.98;99275.57;1786481;79;21233;-44
2022/09/22 07:39:25;;;;;;;8.33;5.05;;;;;;;10.84;74.24;99270.15;1786512;80;20969;-43
2022/09/22 07:41:53;;;;;;;7.33;5.40;;;;;;;10.80;74.15;99272.59;1786511;80;20910;-44
2022/09/22 07:47:05;;;;;;;5.67;5.10;;;;;;;10.91;74.37;99269.48;1786659;79;21275;-43
2022/09/22 07:49:32;;;;;;;5.10;4.60;;;;;;;10.96;73.81;99270.54;1786472;80;21240;-43
2022/09/22 07:51:59;;;;;;;7.10;4.90;;;;;;;11.00;74.03;99270.59;1785625;80;21488;-44
2022/09/22 07:54:26;;;;;;;5.95;5.10;;;;;;;11.07;73.86;99261.22;1757707;81;21527;-43
2022/09/22 07:56:57;;;;;;;4.42;4.03;;;;;;;11.17;73.92;99260.59;1757679;81;21719;-43
2022/09/22 07:59:22;;;;;;;4.55;3.87;;;;;;;11.30;73.37;99260.02;1757659;81;21024;-43
2022/09/22 08:01:50;;;;;;;5.58;4.55;;;;;;;11.39;72.82;99261.09;1758130;81;21122;-44
2022/09/22 08:04:21;;;;;;;4.62;4.08;;;;;;;11.42;72.77;99261.73;1758086;81;20922;-43
2022/09/22 08:06:54;;;;;;;4.50;4.10;;;;;;;11.46;72.69;99264.49;1758061;81;20956;-44
2022/09/22 08:09:21;;;;;;;6.53;4.12;;;;;;;11.47;72.71;99261.99;1752736;81;20973;-43
2022/09/22 08:11:49;;;;;;;5.47;3.58;;;;;;;11.53;72.92;99266.72;1757731;81;21040;-43
2022/09/22 08:14:17;;;;;;;4.05;3.65;;;;;;;11.63;72.26;99255.22;1757818;81;21127;-43
2022/09/22 08:16:44;;;;;;;5.12;3.87;;;;;;;11.70;72.48;99257.25;1757731;81;21521;-44
2022/09/22 08:19:12;;;;;;;3.00;2.77;;;;;;;11.77;71.79;99253.28;1757693;81;20917;-43
2022/09/22 08:21:43;;;;;;;4.28;3.47;;;;;;;11.83;71.41;99259.17;1757831;81;21041;-43
2022/09/22 08:24:12;;;;;;;4.42;3.00;;;;;;;11.92;71.98;99261.02;1757728;81;21036;-43
2022/09/22 08:26:42;;;;;;;4.03;3.62;;;;;;;12.05;70.82;99256.32;1757995;81;21126;-43
2022/09/22 08:29:10;;;;;;;4.55;4.15;;;;;;;12.14;70.84;99251.97;1757975;81;22052;-44
2022/09/22 08:31:40;;;;;;;4.00;3.60;;;;;;;12.22;70.90;99253.60;1760539;80;21066;-44
2022/09/22 08:34:08;;;;;;;6.92;3.75;;;;;;;12.35;71.00;99252.17;1789520;80;20948;-44
2022/09/22 08:36:35;;;;;;;4.42;3.20;;;;;;;12.44;70.47;99248.57;1789125;79;21044;-43
2022/09/22 08:39:03;;;;;;;5.53;3.20;;;;;;;12.58;69.90;99247.95;1769456;80;21128;-43
2022/09/22 08:42:06;;;;;;;4.25;3.33;;;;;;;12.76;69.56;99242.64;1789315;80;20993;-43
2022/09/22 08:44:49;;;;;;;4.40;3.42;;;;;;;12.89;67.20;99241.97;1789141;79;21617;-43
2022/09/22 08:51:50;;;;;;;4.58;3.40;;;;;;;12.79;66.81;99238.59;1789128;80;21019;-43
2022/09/22 08:52:51;;;;;;;3.80;3.50;;;;;;;12.74;67.33;99244.38;1782688;79;21138;-44
2022/09/22 08:55:21;;;;;;;3.52;3.20;;;;;;;12.73;67.42;99240.69;1772340;81;21026;-43
2022/09/22 08:58:07;;;;;;;4.22;3.00;;;;;;;12.76;67.58;99242.07;1772328;81;21021;-44
2022/09/22 09:00:39;;;;;;;3.35;3.05;;;;;;;12.88;67.45;99245.84;1772517;79;21530;-44
2022/09/22 09:03:32;;;;;;;3.35;3.05;;;;;;;12.98;67.33;99240.28;1772445;79;21391;-44
2022/09/22 09:06:24;;;;;;;3.22;2.90;;;;;;;13.08;66.04;99251.82;1764324;80;21752;-44
2022/09/22 09:09:36;;;;;;;3.90;3.22;;;;;;;13.06;65.42;99248.14;1772413;81;20969;-44
2022/09/22 09:12:12;;;;;;;5.05;3.80;;;;;;;13.00;65.77;99252.37;1772489;79;21025;-44
2022/09/22 09:14:57;;;;;;;3.67;3.35;;;;;;;12.94;66.82;99247.06;1769287;80;21018;-43
2022/09/22 09:17:30;;;;;;;3.60;2.70;;;;;;;12.98;66.54;99247.08;1771760;80;20996;-43
2022/09/22 09:20:18;;;;;;;3.42;3.12;;;;;;;13.03;65.54;99244.01;1772805;81;21244;-43
2022/09/22 09:22:56;;;;;;;5.15;3.47;;;;;;;12.96;65.18;99243.98;1772808;79;20950;-43
2022/09/22 09:25:35;;;;;;;4.42;2.77;;;;;;;12.88;65.47;99246.42;1772734;81;21067;-43
2022/09/22 09:28:12;;;;;;;3.60;3.30;;;;;;;12.83;66.15;99251.63;1773215;79;21025;-43
2022/09/22 09:30:49;;;;;;;3.95;2.87;;;;;;;12.80;65.41;99247.53;1772828;81;21076;-43
2022/09/22 09:33:39;;;;;;;2.92;2.62;;;;;;;12.69;65.83;99247.44;1772669;81;21138;-43
2022/09/22 09:36:14;;;;;;;4.00;2.70;;;;;;;12.63;66.33;99253.05;1772485;79;21534;-43
2022/09/22 09:38:52;;;;;;;2.47;2.20;;;;;;;12.56;66.20;99253.75;1772695;81;21540;-43
2022/09/22 09:41:31;;;;;;;3.50;2.67;;;;;;;12.53;66.61;99255.08;1771960;80;21540;-44
2022/09/22 09:43:59;;;;;;;3.70;2.92;;;;;;;12.49;66.82;99256.39;1772948;79;21057;-43
2022/09/22 09:47:01;;;;;;;2.70;2.47;;;;;;;12.42;66.63;99263.13;1772605;81;21204;-44
2022/09/22 09:49:28;;;;;;;2.92;2.62;;;;;;;12.31;66.62;99264.95;1772632;79;20949;-44
2022/09/22 09:51:58;;;;;;;3.27;2.75;;;;;;;12.18;67.29;99254.15;1772505;79;20986;-44
2022/09/22 09:54:31;;;;;;;4.10;2.85;;;;;;;12.18;67.73;99254.15;1759622;81;20969;-44
2022/09/22 09:57:15;;;;;;;3.15;2.58;;;;;;;12.23;68.09;99257.11;1772141;80;21068;-44
2022/09/22 10:02:52;;;;;;;3.05;2.62;;;;;;;12.27;68.03;99261.42;1772925;79;21064;-44
2022/09/22 10:05:24;;;;;;;2.60;2.40;;;;;;;12.34;67.96;99262.09;1772709;80;21056;-44
2022/09/22 10:07:55;;;;;;;2.30;2.10;;;;;;;12.33;67.76;99261.30;1772938;79;21116;-43
2022/09/22 10:10:36;;;;;;;2.98;2.35;;;;;;;12.30;67.46;99259.88;1772567;79;21590;-43
2022/09/22 10:13:08;;;;;;;3.02;2.20;;;;;;;12.32;67.41;99261.09;1772911;81;21078;-43
2022/09/22 10:15:38;;;;;;;3.08;2.20;;;;;;;12.31;67.44;99258.16;1772555;81;21524;-44
2022/09/22 10:18:27;;;;;;;2.83;2.15;;;;;;;12.33;67.67;99255.08;1772781;81;20997;-43
2022/09/22 10:21:19;;;;;;;3.57;2.50;;;;;;;12.33;67.74;99257.22;1772844;81;21276;-44
2022/09/22 10:23:51;;;;;;;3.40;2.58;;;;;;;12.35;68.13;99254.89;1772974;79;21052;-43
2022/09/22 10:26:31;;;;;;;2.80;2.50;;;;;;;12.40;67.82;99257.28;1772168;80;23141;-43
2022/09/22 10:29:12;;;;;;;3.75;2.02;;;;;;;12.43;67.54;99256.55;1772917;81;21181;-43
2022/09/22 10:31:40;;;;;;;5.92;2.17;;;;;;;12.51;67.56;99258.74;1770271;80;20969;-44
2022/09/22 10:34:39;;;;;;;2.80;1.90;;;;;;;12.56;67.26;99257.05;1772903;81;20970;-44
2022/09/22 10:37:09;;;;;;;3.60;2.20;;;;;;;12.55;67.21;99253.54;1737070;80;21057;-44
2022/09/22 10:39:49;;;;;;;1.95;1.75;;;;;;;12.56;67.05;99248.31;1760183;81;21512;-44
2022/09/22 10:42:34;;;;;;;2.42;1.82;;;;;;;12.53;66.84;99263.24;1767240;81;21068;-44
2022/09/22 10:45:08;;;;;;;2.33;1.75;;;;;;;12.45;66.80;99261.02;1772898;79;20946;-44
2022/09/22 10:47:57;;;;;;;2.00;1.80;;;;;;;12.39;67.00;99260.39;1772801;81;20978;-44
2022/09/22 10:50:55;;;;;;;1.70;1.60;;;;;;;12.38;67.02;99262.33;1772786;81;20950;-44
2022/09/22 10:53:50;;;;;;;2.15;1.65;;;;;;;12.31;66.93;99261.45;1780005;80;22038;-44
2022/09/22 10:56:39;;;;;;;2.60;1.70;;;;;;;12.20;67.69;99261.34;1788841;80;21540;-44
2022/09/22 10:59:31;;;;;;;2.25;1.90;;;;;;;12.15;68.41;99265.77;1780592;80;21027;-44
2022/09/22 11:02:18;;;;;;;3.15;1.67;;;;;;;12.16;69.16;99265.38;1789161;79;21487;-44
2022/09/22 11:05:02;;;;;;;3.10;2.10;;;;;;;12.26;69.58;99265.29;1788242;79;21024;-42
2022/09/22 11:14:45;;;;;;;2.37;1.82;;;;;;;12.61;69.44;99249.91;1789084;80;21766;-43
2022/09/22 11:17:36;;;;;;;2.37;2.12;;;;;;;12.69;69.07;99253.45;1789132;80;20921;-42
2022/09/22 11:20:31;;;;;;;3.25;2.37;;;;;;;12.64;68.45;99249.14;1789162;79;21581;-43
2022/09/22 11:23:21;;;;;;;2.70;2.17;;;;;;;12.64;68.17;99248.56;1785396;79;21143;-43
2022/09/22 11:26:10;;;;;;;2.70;2.30;;;;;;;12.67;68.17;99243.55;1789167;80;21063;-42
2022/09/22 11:29:10;;;;;;;2.27;2.05;;;;;;;12.73;68.52;99240.09;1789292;79;21484;-43
2022/09/22 11:32:04;;;;;;;2.25;2.05;;;;;;;12.79;67.78;99242.66;1788979;80;21603;-43
2022/09/22 11:35:04;;;;;;;2.80;1.98;;;;;;;12.88;67.53;99233.59;1789080;79;21036;-44
2022/09/22 11:37:54;;;;;;;3.15;2.22;;;;;;;12.92;66.49;99237.73;1789039;80;21249;-44
2022/09/22 11:41:01;;;;;;;1.82;1.67;;;;;;;12.90;66.37;99240.03;1782541;80;21022;-43
2022/09/22 11:43:34;;;;;;;2.12;1.92;;;;;;;12.92;64.90;99236.37;1789394;80;21025;-44
2022/09/22 11:46:23;;;;;;;2.08;1.70;;;;;;;12.87;65.26;99236.14;1789003;79;21056;-44
2022/09/22 11:49:28;;;;;;;2.58;1.95;;;;;;;12.91;65.48;99230.72;1789210;79;21072;-44
2022/09/22 11:52:28;;;;;;;1.82;1.72;;;;;;;12.97;65.44;99234.66;1785042;79;21125;-44
2022/09/22 11:55:27;;;;;;;2.30;2.10;;;;;;;12.94;64.53;99239.48;1766859;80;20989;-44
2022/09/22 11:57:58;;;;;;;2.42;1.95;;;;;;;12.86;65.07;99240.02;1766561;81;20965;-43
2022/09/22 12:00:25;;;;;;;2.22;1.57;;;;;;;12.80;65.54;99242.88;1766413;81;21024;-43
2022/09/22 12:03:13;;;;;;;2.08;1.50;;;;;;;12.72;66.04;99247.28;1718455;81;21055;-44
2022/09/22 12:06:04;;;;;;;1.40;1.30;;;;;;;12.68;66.26;99245.11;1766363;81;21192;-44
2022/09/22 12:08:36;;;;;;;1.85;1.20;;;;;;;12.53;66.51;99242.27;1754888;81;21052;-43
2022/09/22 12:11:06;;;;;;;2.90;1.35;;;;;;;12.32;67.53;99236.63;1766261;81;21557;-43
2022/09/22 12:13:34;;;;;;;2.55;1.20;;;;;;;12.16;67.90;99241.50;1766239;81;21497;-43
2022/09/22 12:16:14;;;;;;;1.37;1.10;;;;;;;12.05;68.85;99240.63;1766194;81;21040;-43
2022/09/22 12:18:57;;;;;;;;;;;;;;;12.08;69.22;99239.87;1768657;81;23130;-43
2022/09/22 12:21:49;;;;;;;3.90;1.25;;;;;;;12.12;69.64;99240.69;1766238;81;20186;-43
2022/09/22 12:24:16;;;;;;;1.70;1.20;;;;;;;12.05;69.97;99242.73;1766284;81;21012;-44
2022/09/22 12:26:46;;;;;;;1.40;1.30;;;;;;;12.08;69.92;99241.23;1766287;81;21080;-44